Time;durP1;ratioP1;P1;durP2;ratioP2;P2;SDS_P1;SDS_P2;PMS_P1;PMS_P2;Temp;Humidity;BMP_temperature;BMP_pressure;BME280_temperature;BME280_humidity;BME280_pressure;Samples;Min_cycle;Max_cycle;Signal;HPM_P1;HPM_P2
2022/07/16 00:01:25;;;;;;;10.82;1.60;;;;;;;51.14;8.37;100579.75;5047237;28;20087;-65
2022/07/16 00:03:56;;;;;;;9.02;1.90;;;;;;;50.70;9.42;100570.47;5048965;28;20126;-64
2022/07/16 00:06:24;;;;;;;14.43;2.15;;;;;;;52.75;7.76;100563.28;5042111;28;20029;-65
2022/07/16 00:08:51;;;;;;;6.68;1.88;;;;;;;52.86;8.00;100565.16;5044365;28;20037;-65
2022/07/16 00:11:19;;;;;;;34.97;3.13;;;;;;;53.90;7.05;100557.06;5039942;28;20025;-65
2022/07/16 00:13:46;;;;;;;15.35;2.15;;;;;;;52.69;7.92;100560.50;5040956;28;20488;-65
2022/07/16 00:16:14;;;;;;;8.57;1.65;;;;;;;52.88;8.23;100556.66;5038380;28;20037;-64
2022/07/16 00:21:27;;;;;;;12.00;2.20;;;;;;;49.97;9.64;100562.75;5041451;28;20034;-64
2022/07/16 00:23:54;;;;;;;6.38;1.65;;;;;;;50.15;9.67;100555.44;5039251;28;20017;-64
2022/07/16 00:26:21;;;;;;;48.50;3.97;;;;;;;51.17;8.96;100561.28;5035797;28;20028;-64
2022/07/16 00:28:47;;;;;;;8.45;1.90;;;;;;;49.97;10.16;100559.09;5040922;28;20110;-65
2022/07/16 00:31:14;;;;;;;8.60;1.80;;;;;;;50.20;10.01;100534.34;5040950;28;20439;-65
2022/07/16 00:33:41;;;;;;;11.60;2.25;;;;;;;51.25;9.84;100545.59;5039752;28;20037;-64
2022/07/16 00:36:08;;;;;;;10.85;1.92;;;;;;;51.40;8.79;100547.97;5044701;28;20041;-64
2022/07/16 00:38:34;;;;;;;10.18;1.90;;;;;;;50.98;9.59;100533.13;5047034;28;20044;-63
2022/07/16 00:41:01;;;;;;;8.98;1.63;;;;;;;50.92;9.34;100541.16;5051909;28;20033;-64
2022/07/16 00:43:28;;;;;;;15.77;2.05;;;;;;;49.85;9.95;100538.97;5046898;28;20094;-64
2022/07/16 00:45:55;;;;;;;10.80;2.03;;;;;;;49.13;10.62;100537.63;5045846;28;20479;-64
2022/07/16 00:48:21;;;;;;;16.77;2.35;;;;;;;47.38;11.83;100544.78;5056601;28;20047;-63
2022/07/16 00:50:48;;;;;;;7.50;2.00;;;;;;;48.30;11.63;100539.00;5043717;28;20033;-63
2022/07/16 00:53:15;;;;;;;13.43;2.22;;;;;;;49.42;10.61;100538.94;5044261;28;20056;-60
2022/07/16 00:55:41;;;;;;;39.42;3.92;;;;;;;49.84;10.74;100534.53;5045695;28;20483;-61
2022/07/16 00:58:08;;;;;;;33.40;3.33;;;;;;;49.61;10.93;100531.09;5039642;28;20032;-62
2022/07/16 01:00:35;;;;;;;13.23;2.42;;;;;;;48.58;11.51;100551.19;5043012;28;20059;-62
2022/07/16 01:03:05;;;;;;;9.85;1.77;;;;;;;48.12;11.81;100538.31;5042011;28;20123;-63
2022/07/16 01:05:33;;;;;;;9.88;2.08;;;;;;;48.07;11.40;100539.09;5045214;28;20021;-63
2022/07/16 01:08:03;;;;;;;6.05;1.52;;;;;;;48.45;11.60;100545.19;5042006;28;20041;-63
2022/07/16 01:10:30;;;;;;;17.58;2.28;;;;;;;48.56;11.09;100545.13;5044270;28;20427;-62
2022/07/16 01:13:00;;;;;;;7.18;1.75;;;;;;;48.43;11.31;100539.97;5048346;28;20037;-62
2022/07/16 01:15:29;;;;;;;4.07;1.45;;;;;;;48.04;11.53;100548.81;5046808;28;20045;-65
2022/07/16 01:18:02;;;;;;;10.88;1.73;;;;;;;47.49;11.41;100544.75;5042457;28;20037;-64
2022/07/16 01:20:31;;;;;;;7.80;1.65;;;;;;;46.70;12.42;100560.47;5050217;28;20048;-65
2022/07/16 01:23:03;;;;;;;6.28;1.50;;;;;;;46.60;12.62;100559.13;5047727;28;20067;-64
2022/07/16 01:25:29;;;;;;;12.93;1.70;;;;;;;46.56;12.24;100561.47;5045094;28;20036;-62
2022/07/16 01:27:56;;;;;;;6.03;1.30;;;;;;;46.55;12.31;100562.78;5049171;28;20036;-62
2022/07/16 01:30:23;;;;;;;10.23;1.90;;;;;;;46.71;11.93;100567.00;5043112;28;20017;-62
2022/07/16 01:32:49;;;;;;;8.48;1.90;;;;;;;46.81;11.74;100553.94;5047073;28;20166;-62
2022/07/16 01:35:16;;;;;;;4.80;1.45;;;;;;;46.82;12.33;100550.53;5044877;28;20028;-63
2022/07/16 01:37:43;;;;;;;7.60;1.80;;;;;;;46.68;12.68;100563.03;5038716;28;20033;-62
2022/07/16 01:40:10;;;;;;;6.63;1.45;;;;;;;46.13;12.51;100567.31;5044485;28;20048;-63
2022/07/16 01:42:45;;;;;;;8.80;1.80;;;;;;;45.51;13.41;100571.13;5044541;28;20108;-63
2022/07/16 01:45:13;;;;;;;6.57;1.73;;;;;;;45.81;12.84;100563.00;5046318;28;20033;-63
2022/07/16 01:47:42;;;;;;;54.88;3.65;;;;;;;45.85;13.41;100563.53;5045888;28;20082;-63
2022/07/16 01:50:11;;;;;;;19.95;2.05;;;;;;;45.70;13.46;100572.31;5048526;28;20088;-63
2022/07/16 01:52:39;;;;;;;9.82;1.42;;;;;;;45.55;13.46;100578.19;5046153;28;20021;-63
2022/07/16 01:55:08;;;;;;;12.30;1.55;;;;;;;45.11;13.98;100570.03;5048846;28;20129;-62
2022/07/16 01:57:35;;;;;;;9.85;1.48;;;;;;;44.78;14.17;100567.63;5047016;28;20487;-65
2022/07/16 02:00:03;;;;;;;8.90;1.73;;;;;;;44.38;14.78;100572.13;5052067;28;20053;-64
2022/07/16 02:02:38;;;;;;;13.77;1.65;;;;;;;44.24;14.87;100575.88;5044551;28;20086;-63
2022/07/16 02:05:07;;;;;;;7.20;1.48;;;;;;;43.84;15.41;100585.22;5047995;28;20040;-63
2022/07/16 02:07:35;;;;;;;23.05;2.80;;;;;;;43.63;15.53;100585.16;5046036;28;20048;-63
2022/07/16 02:10:07;;;;;;;20.80;2.15;;;;;;;43.48;16.07;100589.34;5052383;28;20129;-63
2022/07/16 02:12:33;;;;;;;15.10;1.50;;;;;;;43.38;16.36;100583.72;5050754;28;20037;-64
2022/07/16 02:15:00;;;;;;;9.30;1.52;;;;;;;43.43;16.11;100594.47;5049808;28;20028;-63
2022/07/16 02:17:27;;;;;;;11.95;1.83;;;;;;;43.25;16.48;100594.66;5047954;28;20029;-63
2022/07/16 02:19:53;;;;;;;13.30;1.85;;;;;;;43.00;16.19;100590.34;5049145;28;20066;-63
2022/07/16 02:22:20;;;;;;;10.45;1.70;;;;;;;42.78;16.72;100599.28;5050142;28;20057;-63
2022/07/16 02:24:47;;;;;;;9.27;1.50;;;;;;;42.54;17.23;100604.25;5050910;28;20025;-63
2022/07/16 02:27:14;;;;;;;10.88;1.33;;;;;;;42.34;17.56;100612.66;5049379;28;20091;-63
2022/07/16 02:29:40;;;;;;;12.77;1.77;;;;;;;42.07;17.99;100608.72;5051800;28;20023;-63
2022/07/16 02:32:07;;;;;;;8.10;1.70;;;;;;;41.94;17.90;100613.84;5049114;28;20724;-62
2022/07/16 02:34:34;;;;;;;12.00;1.60;;;;;;;41.77;18.68;100627.75;5047176;28;20021;-64
2022/07/16 02:37:01;;;;;;;13.20;1.70;;;;;;;41.55;18.63;100613.72;5050531;28;20071;-62
2022/07/16 02:39:27;;;;;;;5.60;1.60;;;;;;;41.48;18.78;100619.78;5049435;28;20045;-64
2022/07/16 02:41:55;;;;;;;10.48;1.90;;;;;;;41.32;19.03;100615.25;5037471;28;20032;-62
2022/07/16 02:44:22;;;;;;;19.88;2.40;;;;;;;41.23;19.17;100617.28;5051250;28;20021;-62
2022/07/16 02:46:48;;;;;;;11.90;1.88;;;;;;;41.00;19.51;100621.63;5049671;28;20075;-63
2022/07/16 02:49:15;;;;;;;14.07;2.10;;;;;;;40.90;19.53;100620.84;5052737;28;20541;-63
2022/07/16 02:51:42;;;;;;;13.70;1.83;;;;;;;40.75;20.02;100634.13;5053088;28;20033;-61
2022/07/16 02:54:08;;;;;;;12.60;1.77;;;;;;;40.70;19.95;100626.22;5051750;28;20029;-64
2022/07/16 02:56:35;;;;;;;15.15;2.00;;;;;;;40.52;20.30;100637.63;5051191;28;20035;-64
2022/07/16 02:59:02;;;;;;;35.55;2.42;;;;;;;40.42;20.68;100629.06;5052141;28;20092;-63
2022/07/16 03:01:29;;;;;;;9.80;1.75;;;;;;;40.45;20.30;100630.19;5053320;28;20564;-62
2022/07/16 03:03:56;;;;;;;15.73;2.17;;;;;;;40.23;20.37;100627.44;5052544;28;20037;-63
2022/07/16 03:06:23;;;;;;;16.95;2.22;;;;;;;40.18;20.53;100637.38;5053491;28;20025;-61
2022/07/16 03:08:50;;;;;;;17.45;2.15;;;;;;;40.10;21.10;100636.13;5053219;28;20104;-59
2022/07/16 03:11:17;;;;;;;12.00;1.80;;;;;;;40.14;20.87;100642.44;5053531;28;20082;-60
2022/07/16 03:13:44;;;;;;;17.20;1.92;;;;;;;39.92;21.21;100658.00;5044575;28;20531;-60
2022/07/16 03:16:10;;;;;;;12.93;1.90;;;;;;;39.90;20.90;100643.47;5047287;28;20041;-60
2022/07/16 03:18:37;;;;;;;9.10;1.80;;;;;;;39.77;20.92;100643.56;5043944;28;20021;-60
2022/07/16 03:21:04;;;;;;;14.10;1.90;;;;;;;39.80;20.33;100651.97;5052199;28;20025;-60
2022/07/16 03:23:30;;;;;;;11.02;1.65;;;;;;;39.78;20.08;100640.25;5044656;28;20480;-60
2022/07/16 03:25:57;;;;;;;6.70;1.50;;;;;;;39.73;19.90;100657.94;5043788;28;20052;-60
2022/07/16 03:28:24;;;;;;;26.67;2.25;;;;;;;39.45;20.16;100653.34;5037971;28;20025;-59
2022/07/16 03:30:50;;;;;;;13.07;1.80;;;;;;;39.38;20.58;100662.97;5050025;28;20047;-60
2022/07/16 03:33:17;;;;;;;13.40;1.95;;;;;;;39.63;19.60;100662.00;5039506;28;20028;-60
2022/07/16 03:35:44;;;;;;;19.38;1.90;;;;;;;39.52;19.85;100658.81;5044651;28;20049;-60
2022/07/16 03:40:55;;;;;;;8.00;1.65;;;;;;;39.38;19.75;100670.69;5037590;28;20102;-60
2022/07/16 03:43:22;;;;;;;6.32;1.25;;;;;;;39.26;19.96;100670.31;5047214;28;20029;-59
2022/07/16 03:45:48;;;;;;;11.15;1.70;;;;;;;39.26;20.08;100673.16;5041557;28;20059;-60
2022/07/16 03:48:15;;;;;;;13.20;1.75;;;;;;;39.31;19.72;100677.44;5044894;28;20021;-60
2022/07/16 03:50:41;;;;;;;10.25;1.63;;;;;;;39.13;20.01;100678.09;5054054;28;20121;-61
2022/07/16 03:53:08;;;;;;;12.43;1.65;;;;;;;39.08;20.67;100677.91;5049059;28;20064;-60
2022/07/16 03:55:35;;;;;;;9.90;1.65;;;;;;;39.06;20.34;100678.34;5041194;28;20040;-60
2022/07/16 03:58:01;;;;;;;7.32;1.70;;;;;;;38.96;20.79;100679.53;5041791;28;20029;-60
2022/07/16 04:00:28;;;;;;;7.05;1.70;;;;;;;38.97;20.54;100681.16;5049575;28;20376;-60
2022/07/16 04:02:54;;;;;;;8.98;1.95;;;;;;;38.80;21.10;100679.75;5037353;28;20056;-62
2022/07/16 04:05:21;;;;;;;10.57;2.50;;;;;;;38.69;20.89;100675.22;5047425;28;20036;-60
2022/07/16 04:07:48;;;;;;;9.60;2.70;;;;;;;38.58;21.68;100682.50;5043520;28;20025;-60
2022/07/16 04:10:14;;;;;;;10.02;2.97;;;;;;;38.49;21.47;100674.69;5039895;28;20033;-60
2022/07/16 04:12:41;;;;;;;9.60;3.90;;;;;;;38.66;21.25;100695.25;5050138;28;20020;-60
2022/07/16 04:15:08;;;;;;;12.15;4.32;;;;;;;38.71;21.34;100691.81;5038110;28;20029;-60
2022/07/16 04:17:35;;;;;;;11.68;4.03;;;;;;;38.55;21.71;100689.88;5045179;28;20032;-60
2022/07/16 04:20:01;;;;;;;8.80;3.70;;;;;;;38.42;21.77;100697.63;5051219;28;20514;-62
2022/07/16 04:22:28;;;;;;;9.82;3.60;;;;;;;38.40;21.70;100691.63;5052509;28;20028;-61
2022/07/16 04:24:55;;;;;;;10.77;3.38;;;;;;;38.44;21.93;100691.53;5036657;28;20468;-62
2022/07/16 04:27:21;;;;;;;14.35;3.22;;;;;;;38.26;22.27;100709.16;5046829;28;20349;-62
2022/07/16 04:29:48;;;;;;;8.77;3.63;;;;;;;38.12;22.18;100709.59;5043251;28;20028;-62
2022/07/16 04:32:14;;;;;;;11.48;2.67;;;;;;;38.27;22.08;100719.28;5038317;28;20083;-62
2022/07/16 04:34:41;;;;;;;13.18;3.03;;;;;;;38.15;22.48;100722.88;5049666;28;20041;-61
2022/07/16 04:37:08;;;;;;;11.30;3.10;;;;;;;38.24;21.99;100723.00;5037945;28;20120;-62
2022/07/16 04:39:34;;;;;;;8.45;2.50;;;;;;;38.14;22.16;100732.63;5044849;28;20041;-62
2022/07/16 04:42:01;;;;;;;12.85;2.40;;;;;;;38.05;22.21;100741.81;5044879;28;20044;-61
2022/07/16 04:44:28;;;;;;;11.63;2.50;;;;;;;38.25;21.88;100750.16;5037442;28;20042;-61
2022/07/16 04:46:54;;;;;;;16.05;2.65;;;;;;;38.18;22.53;100754.00;5049544;28;20668;-61
2022/07/16 04:49:21;;;;;;;13.93;2.88;;;;;;;38.09;22.26;100760.34;5045517;28;20403;-62
2022/07/16 04:51:47;;;;;;;13.85;2.90;;;;;;;37.93;22.80;100762.50;5052751;28;20025;-61
2022/07/16 04:54:14;;;;;;;14.40;3.15;;;;;;;37.83;22.53;100755.88;5039341;28;20049;-61
2022/07/16 04:56:41;;;;;;;10.55;2.95;;;;;;;37.73;23.01;100759.88;5049280;28;20501;-61
2022/07/16 04:59:07;;;;;;;20.17;3.38;;;;;;;37.67;23.04;100756.72;5037482;28;20399;-61
2022/07/16 05:01:34;;;;;;;17.73;3.53;;;;;;;37.58;23.18;100758.66;5044695;28;20433;-62
2022/07/16 05:04:00;;;;;;;13.18;3.30;;;;;;;37.59;23.26;100758.22;5042867;28;20514;-62
2022/07/16 05:06:27;;;;;;;18.50;3.38;;;;;;;37.54;23.39;100735.28;5037316;28;20025;-62
2022/07/16 05:08:56;;;;;;;13.15;3.30;;;;;;;37.51;23.34;100749.09;5049124;28;20033;-62
2022/07/16 05:11:23;;;;;;;19.42;3.72;;;;;;;37.43;23.62;100756.22;5039405;28;20353;-61
2022/07/16 05:13:53;;;;;;;30.55;4.00;;;;;;;37.65;23.07;100752.75;5041405;28;20061;-62
2022/07/16 05:16:22;;;;;;;20.48;4.13;;;;;;;37.53;23.16;100745.84;5046943;28;20048;-62
2022/07/16 05:18:50;;;;;;;18.45;3.30;;;;;;;37.76;22.90;100747.59;5051913;28;20049;-61
2022/07/16 05:21:16;;;;;;;22.92;3.83;;;;;;;37.80;22.55;100746.25;5052781;28;20025;-62
2022/07/16 05:23:44;;;;;;;14.35;3.28;;;;;;;37.74;22.91;100750.09;5042653;28;20025;-62
2022/07/16 05:26:11;;;;;;;18.83;3.45;;;;;;;37.76;22.61;100753.28;5044448;28;20021;-62
2022/07/16 05:28:37;;;;;;;18.70;3.47;;;;;;;37.53;22.92;100742.22;5051951;28;20439;-62
2022/07/16 05:31:04;;;;;;;19.73;3.80;;;;;;;37.33;23.14;100753.69;5036379;28;20468;-62
2022/07/16 05:33:30;;;;;;;13.95;3.40;;;;;;;37.48;23.07;100752.84;5044420;28;20041;-62
2022/07/16 05:35:57;;;;;;;16.90;3.45;;;;;;;37.26;23.39;100753.88;5037475;28;20037;-62
2022/07/16 05:38:24;;;;;;;19.88;3.40;;;;;;;36.97;24.06;100748.19;5047246;28;20040;-62
2022/07/16 05:40:50;;;;;;;14.30;3.40;;;;;;;37.00;23.52;100750.16;5047824;28;20043;-62
2022/07/16 05:43:17;;;;;;;10.10;3.28;;;;;;;36.87;24.02;100748.03;5036643;28;20545;-61
2022/07/16 05:45:43;;;;;;;11.73;3.10;;;;;;;36.71;24.69;100756.53;5041934;28;20029;-61
2022/07/16 05:48:10;;;;;;;15.13;3.60;;;;;;;36.64;24.03;100756.72;5044554;28;20112;-62
2022/07/16 05:50:37;;;;;;;19.15;3.97;;;;;;;36.49;25.23;100747.78;5051793;28;20025;-61
2022/07/16 05:53:03;;;;;;;18.02;4.18;;;;;;;36.37;24.60;100754.16;5047202;28;20107;-62
2022/07/16 05:55:30;;;;;;;16.27;4.68;;;;;;;36.30;25.60;100757.13;5037961;28;20048;-61
2022/07/16 05:57:57;;;;;;;30.65;5.35;;;;;;;36.11;24.76;100735.34;5039117;28;20030;-62
2022/07/16 06:00:23;;;;;;;34.85;5.25;;;;;;;36.21;25.50;100754.91;5045076;28;20021;-62
2022/07/16 06:02:50;;;;;;;29.58;5.68;;;;;;;36.24;25.09;100761.69;5032330;28;20148;-62
2022/07/16 06:05:16;;;;;;;24.10;5.40;;;;;;;36.17;25.75;100751.34;5043021;28;20056;-62
2022/07/16 06:07:43;;;;;;;21.35;5.20;;;;;;;36.01;25.81;100754.16;5039536;28;20021;-62
2022/07/16 06:10:10;;;;;;;19.65;4.57;;;;;;;36.15;25.46;100756.66;5038661;28;20033;-61
2022/07/16 06:12:37;;;;;;;20.88;7.22;;;;;;;36.44;24.08;100761.66;5047219;28;20037;-61
2022/07/16 06:15:05;;;;;;;21.92;5.90;;;;;;;36.55;23.87;100757.34;5036150;28;20037;-61
2022/07/16 06:17:31;;;;;;;17.92;6.03;;;;;;;36.85;23.41;100747.69;5044033;28;20488;-61
2022/07/16 06:19:58;;;;;;;20.70;5.90;;;;;;;36.85;23.08;100738.41;5050299;28;20250;-61
2022/07/16 06:22:24;;;;;;;21.42;5.75;;;;;;;36.96;22.94;100749.44;5051973;28;20104;-62
2022/07/16 06:24:51;;;;;;;34.45;6.47;;;;;;;36.88;23.70;100746.78;5035333;28;20030;-61
2022/07/16 06:27:18;;;;;;;24.90;5.10;;;;;;;37.07;23.32;100764.13;5045294;28;20040;-61
2022/07/16 06:29:44;;;;;;;21.55;4.20;;;;;;;37.18;22.93;100764.63;5041470;28;20032;-61
2022/07/16 06:32:11;;;;;;;36.05;5.10;;;;;;;37.06;22.72;100763.31;5051929;28;20029;-61
2022/07/16 06:34:38;;;;;;;21.45;4.63;;;;;;;36.99;22.92;100765.56;5035249;28;20117;-61
2022/07/16 06:37:04;;;;;;;36.28;6.00;;;;;;;37.00;21.89;100770.00;5047452;28;20033;-62
2022/07/16 06:39:31;;;;;;;21.05;4.22;;;;;;;37.12;21.58;100764.34;5039574;28;20041;-62
2022/07/16 06:41:59;;;;;;;18.98;4.95;;;;;;;37.17;21.38;100772.34;5039842;28;20044;-61
2022/07/16 06:44:26;;;;;;;15.18;4.28;;;;;;;37.20;20.92;100762.13;5047113;28;20032;-61
2022/07/16 06:46:54;;;;;;;17.95;5.88;;;;;;;37.23;20.34;100772.56;5038669;28;20579;-61
2022/07/16 06:49:20;;;;;;;22.08;6.60;;;;;;;37.18;20.59;100770.28;5053963;28;20020;-61
2022/07/16 06:51:47;;;;;;;22.02;4.68;;;;;;;37.13;19.79;100768.00;5055061;28;20171;-61
2022/07/16 06:54:14;;;;;;;17.58;3.58;;;;;;;37.28;19.30;100769.22;5041352;28;20049;-60
2022/07/16 06:56:40;;;;;;;18.30;5.22;;;;;;;37.25;19.43;100767.25;5052024;28;20076;-61
2022/07/16 06:59:07;;;;;;;22.10;6.70;;;;;;;37.02;19.79;100764.66;5050552;28;20079;-61
2022/07/16 07:01:33;;;;;;;26.17;7.03;;;;;;;37.13;19.86;100762.31;5043281;28;20099;-62
2022/07/16 07:04:00;;;;;;;22.13;6.65;;;;;;;37.04;19.85;100759.34;5042981;28;20156;-60
2022/07/16 07:06:27;;;;;;;17.77;5.40;;;;;;;37.16;19.30;100752.91;5050428;28;20052;-61
2022/07/16 07:08:53;;;;;;;14.00;4.00;;;;;;;37.21;18.85;100755.22;5038211;28;20037;-62
2022/07/16 07:11:20;;;;;;;13.38;3.70;;;;;;;37.21;19.11;100738.22;5048638;28;20538;-61
2022/07/16 07:13:46;;;;;;;23.55;3.90;;;;;;;37.14;19.37;100755.41;5044632;28;20055;-61
2022/07/16 07:16:13;;;;;;;16.33;3.55;;;;;;;36.87;19.66;100750.06;5041299;28;20029;-61
2022/07/16 07:18:40;;;;;;;14.63;3.95;;;;;;;36.81;19.06;100757.53;5051479;28;20104;-61
2022/07/16 07:21:06;;;;;;;16.27;4.03;;;;;;;36.81;19.10;100752.66;5054719;28;20112;-61
2022/07/16 07:23:33;;;;;;;16.80;5.13;;;;;;;36.85;18.96;100747.69;5046429;28;20034;-61
2022/07/16 07:26:00;;;;;;;16.33;3.33;;;;;;;36.95;18.61;100756.34;5046201;28;20104;-62
2022/07/16 07:28:28;;;;;;;15.82;3.70;;;;;;;36.78;19.24;100742.16;5039051;28;20029;-61
2022/07/16 07:30:58;;;;;;;18.17;3.50;;;;;;;36.62;19.15;100748.66;5050969;28;20439;-61
2022/07/16 07:33:25;;;;;;;12.48;3.40;;;;;;;36.49;19.49;100752.66;5041529;28;20391;-61
2022/07/16 07:35:52;;;;;;;26.10;3.50;;;;;;;36.52;18.75;100746.91;5043376;28;20108;-61
2022/07/16 07:38:19;;;;;;;12.23;2.97;;;;;;;36.60;18.54;100739.00;5048551;28;20461;-61
2022/07/16 07:40:46;;;;;;;13.30;3.55;;;;;;;36.91;18.29;100739.44;5037493;28;20104;-61
2022/07/16 07:43:16;;;;;;;18.23;3.70;;;;;;;36.71;19.04;100728.19;5048648;28;20041;-62
2022/07/16 07:45:43;;;;;;;17.13;3.50;;;;;;;36.62;18.81;100739.34;5043556;28;20400;-61
2022/07/16 07:48:09;;;;;;;16.95;3.65;;;;;;;36.57;19.63;100726.53;5044765;28;20518;-61
2022/07/16 07:50:36;;;;;;;14.13;3.55;;;;;;;36.81;18.61;100723.53;5053999;28;20030;-61
2022/07/16 07:53:03;;;;;;;16.80;3.45;;;;;;;36.73;18.89;100717.22;5050010;28;20033;-61
2022/07/16 07:55:30;;;;;;;11.95;3.50;;;;;;;36.58;19.75;100722.47;5040452;28;20420;-62
2022/07/16 07:57:57;;;;;;;13.50;3.65;;;;;;;36.55;19.02;100709.19;5042388;28;20113;-61
2022/07/16 08:00:24;;;;;;;17.48;4.00;;;;;;;36.64;19.44;100702.91;5049080;28;20052;-62
2022/07/16 08:02:51;;;;;;;31.33;4.82;;;;;;;36.37;19.82;100711.69;5037281;28;20396;-60
2022/07/16 08:05:18;;;;;;;29.70;4.13;;;;;;;36.26;19.69;100725.25;5047145;28;20041;-60
2022/07/16 08:07:45;;;;;;;63.08;6.20;;;;;;;36.25;19.08;100721.63;5043057;28;20095;-61
2022/07/16 08:10:12;;;;;;;42.72;4.90;;;;;;;36.20;19.37;100719.34;5039436;28;20103;-60
2022/07/16 08:12:40;;;;;;;35.42;5.43;;;;;;;36.03;20.60;100709.25;5049981;28;20095;-62
2022/07/16 08:15:07;;;;;;;19.77;4.22;;;;;;;35.94;19.98;100709.88;5037679;28;20113;-62
2022/07/16 08:17:35;;;;;;;16.08;3.72;;;;;;;35.88;19.77;100714.44;5052960;28;20523;-61
2022/07/16 08:20:03;;;;;;;22.08;3.97;;;;;;;35.69;20.53;100710.38;5052698;28;20029;-61
2022/07/16 08:22:29;;;;;;;19.00;3.95;;;;;;;35.64;20.61;100715.75;5052758;28;20316;-62
2022/07/16 08:27:41;;;;;;;13.77;3.88;;;;;;;35.45;21.88;100706.06;5046929;28;20443;-62
2022/07/16 08:30:08;;;;;;;16.67;3.75;;;;;;;35.20;23.27;100711.44;5052677;28;20106;-59
2022/07/16 08:32:35;;;;;;;20.60;3.95;;;;;;;35.00;22.47;100708.56;5052928;28;20025;-59
2022/07/16 08:35:01;;;;;;;23.05;3.85;;;;;;;34.95;21.96;100709.88;5052741;28;20112;-60
2022/07/16 08:37:40;;;;;;;21.00;3.63;;;;;;;34.87;24.86;100701.97;5052769;28;20110;-60
2022/07/16 08:40:13;;;;;;;24.42;4.60;;;;;;;34.79;24.10;100706.91;5052408;28;20052;-59
2022/07/16 08:42:40;;;;;;;39.55;5.30;;;;;;;34.68;23.20;100689.38;5052429;28;20037;-60
2022/07/16 08:45:08;;;;;;;21.70;4.95;;;;;;;34.69;22.81;100699.44;5050566;28;20483;-60
2022/07/16 08:47:35;;;;;;;26.38;5.30;;;;;;;34.69;22.93;100707.91;5049915;28;20048;-60
2022/07/16 08:50:13;;;;;;;20.80;5.05;;;;;;;34.65;22.50;100693.03;5052150;28;20044;-60
2022/07/16 08:52:48;;;;;;;20.70;5.25;;;;;;;34.59;22.07;100706.06;5052438;28;20036;-61
2022/07/16 08:55:15;;;;;;;29.30;5.13;;;;;;;34.50;21.46;100701.78;5051916;28;20029;-60
2022/07/16 08:57:42;;;;;;;19.92;4.90;;;;;;;34.48;21.73;100701.41;5051590;28;20036;-60
2022/07/16 09:00:13;;;;;;;16.95;4.88;;;;;;;34.48;21.45;100704.25;5051600;28;20024;-60
2022/07/16 09:02:41;;;;;;;20.40;4.07;;;;;;;34.29;22.02;100716.19;5050454;28;20025;-61
2022/07/16 09:05:09;;;;;;;20.52;4.93;;;;;;;34.11;23.30;100719.31;5049708;28;20158;-60
2022/07/16 09:07:36;;;;;;;22.63;4.88;;;;;;;34.01;22.88;100723.09;5051651;28;20033;-60
2022/07/16 09:10:04;;;;;;;23.23;4.65;;;;;;;33.93;24.27;100730.03;5051689;28;20029;-60
2022/07/16 09:12:39;;;;;;;21.42;3.90;;;;;;;33.90;24.11;100737.34;5051909;28;20033;-60
2022/07/16 09:15:26;;;;;;;;;;;;;;;33.86;24.86;100744.25;5051758;28;20033;-60
2022/07/16 09:18:15;;;;;;;43.78;10.00;;;;;;;33.83;25.70;100745.88;5049154;28;19970;-60
2022/07/16 09:20:51;;;;;;;43.30;13.07;;;;;;;33.73;27.91;100749.63;5050863;28;20029;-60
2022/07/16 09:23:32;;;;;;;38.30;10.00;;;;;;;33.73;27.33;100737.56;5050016;28;20063;-60
2022/07/16 09:26:02;;;;;;;31.88;7.80;;;;;;;33.64;27.79;100740.91;5050195;28;20051;-60
2022/07/16 09:28:47;;;;;;;20.60;5.97;;;;;;;33.56;28.72;100733.75;5051517;28;20021;-60
2022/07/16 09:31:41;;;;;;;19.10;4.97;;;;;;;33.49;28.38;100745.13;5050537;28;20033;-60
2022/07/16 09:34:11;;;;;;;15.47;3.67;;;;;;;33.57;27.92;100746.59;5039372;28;20559;-60
2022/07/16 09:36:40;;;;;;;12.70;3.28;;;;;;;33.31;29.04;100736.84;5048487;28;20036;-60
2022/07/16 09:39:08;;;;;;;13.55;2.80;;;;;;;33.21;28.56;100734.94;5036317;28;20045;-60
2022/07/16 09:41:46;;;;;;;15.68;2.90;;;;;;;33.14;30.13;100730.19;5043458;28;20083;-60
2022/07/16 09:44:24;;;;;;;9.95;2.92;;;;;;;33.02;29.42;100734.31;5045735;28;20041;-60
2022/07/16 09:47:12;;;;;;;11.55;3.13;;;;;;;33.00;30.22;100728.31;5035524;28;20037;-60
2022/07/16 09:49:50;;;;;;;11.57;2.90;;;;;;;32.87;29.76;100726.47;5051129;28;20130;-60
2022/07/16 09:52:42;;;;;;;5.10;2.28;;;;;;;32.82;31.29;100727.69;5050699;28;20166;-60
2022/07/16 09:55:09;;;;;;;6.55;2.40;;;;;;;32.65;30.17;100718.19;5035873;28;20045;-60
2022/07/16 09:57:36;;;;;;;9.57;2.45;;;;;;;32.58;30.93;100720.25;5051958;28;20024;-60
2022/07/16 10:00:07;;;;;;;7.75;2.35;;;;;;;32.44;31.17;100721.19;5039614;28;20080;-60
2022/07/16 10:02:39;;;;;;;10.65;2.47;;;;;;;32.54;30.84;100727.94;5048469;28;20048;-60
2022/07/16 10:05:06;;;;;;;9.63;2.47;;;;;;;32.43;31.24;100725.22;5035944;28;20140;-60
2022/07/16 10:07:33;;;;;;;6.68;2.35;;;;;;;32.38;31.30;100722.84;5043914;28;20022;-60
2022/07/16 10:10:01;;;;;;;8.13;2.70;;;;;;;32.24;32.07;100720.91;5043712;28;20039;-60
2022/07/16 10:12:29;;;;;;;9.75;2.72;;;;;;;32.13;31.58;100722.97;5036417;28;20038;-60
2022/07/16 10:14:56;;;;;;;11.65;2.40;;;;;;;31.99;31.77;100712.66;5048535;28;20029;-61
2022/07/16 10:17:34;;;;;;;17.42;3.10;;;;;;;31.95;31.90;100723.09;5038160;28;20021;-60
2022/07/16 10:20:11;;;;;;;9.70;3.13;;;;;;;31.85;32.58;100726.78;5050676;28;20064;-60
2022/07/16 10:22:45;;;;;;;10.32;3.20;;;;;;;31.84;32.58;100716.75;5053599;28;20052;-61
2022/07/16 10:25:17;;;;;;;9.45;3.17;;;;;;;31.79;32.42;100725.63;5040482;28;20063;-61
2022/07/16 10:27:45;;;;;;;13.88;4.20;;;;;;;31.71;32.40;100718.38;5045514;28;20506;-61
2022/07/16 10:30:15;;;;;;;16.58;5.68;;;;;;;31.73;33.55;100721.63;5047570;28;20037;-61
2022/07/16 10:33:05;;;;;;;39.35;7.65;;;;;;;31.97;32.07;100733.97;5053180;28;20033;-61
2022/07/16 10:35:32;;;;;;;22.50;8.90;;;;;;;31.79;31.93;100732.03;5047519;28;20196;-61
2022/07/16 10:38:07;;;;;;;31.17;11.23;;;;;;;31.78;32.51;100729.66;5046749;28;20037;-61
2022/07/16 10:40:37;;;;;;;31.05;13.48;;;;;;;31.72;33.27;100725.63;5038587;28;20052;-61
2022/07/16 10:43:17;;;;;;;27.90;10.73;;;;;;;31.75;33.23;100724.81;5051314;28;20044;-62
2022/07/16 10:45:54;;;;;;;22.85;9.00;;;;;;;31.65;32.88;100717.22;5044691;28;20032;-62
2022/07/16 10:48:22;;;;;;;19.80;10.35;;;;;;;31.69;32.51;100732.84;5046026;28;20395;-61
2022/07/16 10:51:22;;;;;;;19.10;9.50;;;;;;;31.63;32.83;100740.13;5055153;28;20025;-61
2022/07/16 10:54:04;;;;;;;16.10;6.25;;;;;;;31.79;32.89;100734.06;5011420;28;20046;-61
2022/07/16 10:56:38;;;;;;;16.30;6.35;;;;;;;31.89;32.80;100732.38;5050916;28;20044;-62
2022/07/16 10:59:08;;;;;;;16.08;6.05;;;;;;;32.17;32.46;100735.03;5039441;28;20033;-62
2022/07/16 11:01:36;;;;;;;15.88;5.15;;;;;;;32.11;33.04;100737.44;5055310;28;20036;-61
2022/07/16 11:04:04;;;;;;;12.73;4.25;;;;;;;32.13;33.36;100739.84;5046907;28;20088;-62
2022/07/16 11:06:32;;;;;;;13.18;3.92;;;;;;;32.28;33.05;100746.22;5054967;28;20033;-62
2022/07/16 11:09:01;;;;;;;16.10;4.13;;;;;;;32.08;33.96;100755.16;5051338;28;20037;-62
2022/07/16 11:11:36;;;;;;;13.80;6.00;;;;;;;32.07;34.49;100749.94;5042390;28;20025;-61
2022/07/16 11:14:02;;;;;;;;;;;;;;;31.92;34.21;100760.47;5042787;28;20408;-60
2022/07/16 11:16:30;;;;;;;23.48;7.25;;;;;;;31.73;35.25;100756.16;5053526;28;19923;-61
2022/07/16 11:19:01;;;;;;;15.90;5.43;;;;;;;31.54;35.19;100754.59;5053185;28;20048;-61
2022/07/16 11:21:27;;;;;;;15.75;4.32;;;;;;;31.34;35.97;100756.28;5053863;28;20076;-61
2022/07/16 11:24:00;;;;;;;12.57;4.35;;;;;;;31.37;36.03;100772.31;5053634;28;20459;-61
2022/07/16 11:26:28;;;;;;;10.88;4.00;;;;;;;31.34;36.33;100773.13;5053660;28;20032;-61
2022/07/16 11:29:02;;;;;;;14.82;4.30;;;;;;;31.52;35.84;100773.06;5054804;28;20136;-61
2022/07/16 11:31:35;;;;;;;12.88;4.38;;;;;;;31.51;36.21;100779.91;5054519;28;20036;-61
2022/07/16 11:34:07;;;;;;;18.08;4.35;;;;;;;31.47;36.54;100788.34;5054686;28;20036;-61